createdAt,value
2022-11-17T00:01:10.614Z,6.43
2022-11-17T00:04:05.421Z,4.20
2022-11-17T00:06:55.366Z,6.38
2022-11-17T00:09:35.623Z,7.30
2022-11-17T00:12:28.465Z,7.85
2022-11-17T00:15:05.517Z,4.22
2022-11-17T00:17:39.109Z,3.80
2022-11-17T00:20:32.125Z,3.60
2022-11-17T00:23:07.754Z,6.57
2022-11-17T00:25:46.768Z,4.20
2022-11-17T00:28:22.617Z,3.35
2022-11-17T00:31:11.576Z,4.20
2022-11-17T00:34:08.812Z,3.63
2022-11-17T00:37:14.753Z,6.65
2022-11-17T00:40:12.669Z,4.38
2022-11-17T00:42:44.839Z,2.97
2022-11-17T00:46:12.747Z,4.70
2022-11-17T00:48:48.693Z,3.30
2022-11-17T00:51:19.501Z,2.72
2022-11-17T00:53:53.029Z,3.53
2022-11-17T00:56:43.823Z,4.68
2022-11-17T00:59:31.685Z,5.38
2022-11-17T01:02:12.400Z,3.42
2022-11-17T01:05:16.462Z,4.25
2022-11-17T01:08:07.302Z,6.80
2022-11-17T01:10:38.732Z,3.65
2022-11-17T01:13:17.074Z,4.28
2022-11-17T01:15:50.936Z,3.80
2022-11-17T01:18:26.369Z,3.33
2022-11-17T01:21:36.685Z,6.22
2022-11-17T01:24:27.391Z,3.42
2022-11-17T01:27:13.072Z,4.68
2022-11-17T01:29:48.008Z,5.70
2022-11-17T01:32:30.067Z,3.03
2022-11-17T01:35:46.077Z,2.75
2022-11-17T01:38:22.753Z,3.83
2022-11-17T01:40:54.016Z,2.75
2022-11-17T01:43:47.864Z,3.05
2022-11-17T01:47:04.213Z,2.47
2022-11-17T01:49:38.892Z,4.72
2022-11-17T01:52:13.143Z,2.42
2022-11-17T01:55:13.300Z,2.90
2022-11-17T02:00:43.247Z,1.95
2022-11-17T02:03:39.773Z,4.20
2022-11-17T02:06:39.048Z,4.13
2022-11-17T02:09:42.357Z,2.65
2022-11-17T02:12:27.184Z,2.95
2022-11-17T02:15:34.502Z,3.28
2022-11-17T02:18:13.555Z,3.10
2022-11-17T02:21:18.916Z,1.60
2022-11-17T02:24:15.032Z,1.92
2022-11-17T02:27:29.070Z,2.55
2022-11-17T02:30:23.618Z,4.25
2022-11-17T02:33:09.237Z,2.10
2022-11-17T02:36:22.305Z,6.65
2022-11-17T02:39:24.004Z,1.98
2022-11-17T02:42:47.956Z,2.78
2022-11-17T02:45:30.233Z,2.85
2022-11-17T02:48:45.178Z,1.83
2022-11-17T02:51:51.398Z,6.18
2022-11-17T02:54:26.533Z,1.73
2022-11-17T02:57:05.002Z,1.88
2022-11-17T02:59:52.034Z,2.67
2022-11-17T03:02:53.098Z,1.77
2022-11-17T03:06:11.543Z,3.38
2022-11-17T03:09:27.497Z,2.33
2022-11-17T03:12:14.863Z,2.83
2022-11-17T03:15:30.799Z,1.73
2022-11-17T03:19:07.917Z,1.83
2022-11-17T03:22:31.567Z,3.88
2022-11-17T03:25:19.880Z,3.47
2022-11-17T03:28:18.354Z,2.08
2022-11-17T03:30:53.849Z,1.13
2022-11-17T03:33:50.361Z,1.80
2022-11-17T03:36:36.856Z,2.38
2022-11-17T03:39:40.648Z,2.95
2022-11-17T03:42:52.594Z,1.27
2022-11-17T03:45:38.344Z,2.28
2022-11-17T03:48:48.827Z,2.72
2022-11-17T03:51:27.722Z,2.20
2022-11-17T03:54:14.676Z,4.40
2022-11-17T03:57:13.571Z,3.08
2022-11-17T04:00:08.254Z,4.07
2022-11-17T04:03:00.116Z,3.70
2022-11-17T04:05:51.867Z,2.63
2022-11-17T04:08:34.818Z,3.53
2022-11-17T04:11:38.135Z,5.50
2022-11-17T04:14:43.403Z,3.20
2022-11-17T04:17:34.450Z,5.75
2022-11-17T04:20:26.296Z,5.22
2022-11-17T04:23:36.574Z,6.68
2022-11-17T04:26:39.287Z,2.70
2022-11-17T04:29:18.970Z,9.00
2022-11-17T04:32:03.863Z,6.32
2022-11-17T04:34:45.411Z,5.35
2022-11-17T04:37:34.955Z,7.53
2022-11-17T04:40:19.804Z,4.55
2022-11-17T04:42:52.847Z,4.38
2022-11-17T04:45:41.053Z,8.65
2022-11-17T04:48:39.733Z,1.63
2022-11-17T04:51:38.388Z,1.70
2022-11-17T04:54:24.067Z,1.63
2022-11-17T04:57:26.443Z,1.27
2022-11-17T05:00:54.636Z,1.95
2022-11-17T05:03:42.907Z,1.60
2022-11-17T05:06:32.476Z,1.63
2022-11-17T05:09:14.335Z,2.92
2022-11-17T05:12:26.780Z,4.13
2022-11-17T05:15:43.049Z,2.10
2022-11-17T05:18:16.645Z,15.45
2022-11-17T05:20:58.558Z,9.18
2022-11-17T05:24:01.549Z,8.93
2022-11-17T05:26:45.113Z,4.72
2022-11-17T05:29:34.476Z,4.28
2022-11-17T05:32:39.501Z,4.25
2022-11-17T05:35:10.339Z,3.13
2022-11-17T05:37:48.555Z,2.20
2022-11-17T05:40:52.957Z,6.18
2022-11-17T05:44:09.216Z,6.28
2022-11-17T05:47:05.323Z,4.28
2022-11-17T05:49:45.376Z,3.15
2022-11-17T05:52:17.961Z,3.83
2022-11-17T05:54:58.571Z,3.88
2022-11-17T05:57:47.160Z,1.52
2022-11-17T06:00:39.096Z,1.58
2022-11-17T06:03:53.050Z,1.40
2022-11-17T06:06:45.547Z,1.95
2022-11-17T06:09:33.329Z,2.33
2022-11-17T06:12:11.982Z,4.07
2022-11-17T06:15:22.000Z,2.38
2022-11-17T06:18:19.864Z,6.10
2022-11-17T06:21:00.479Z,3.50
2022-11-17T06:23:36.388Z,2.08
2022-11-17T06:26:24.657Z,3.92
2022-11-17T06:29:08.372Z,3.05
2022-11-17T06:32:08.470Z,2.70
2022-11-17T06:34:50.546Z,2.33
2022-11-17T06:38:05.585Z,2.70
2022-11-17T06:40:42.249Z,3.15
2022-11-17T06:43:39.680Z,5.10
2022-11-17T06:46:18.961Z,5.35
2022-11-17T06:49:26.045Z,6.88
2022-11-17T06:52:24.899Z,6.82
2022-11-17T06:55:41.814Z,3.20
2022-11-17T06:58:59.087Z,3.10
2022-11-17T07:01:43.918Z,3.50
2022-11-17T07:04:27.830Z,3.15
2022-11-17T07:07:28.420Z,5.00
2022-11-17T07:10:11.283Z,3.30
2022-11-17T07:13:34.663Z,3.70
2022-11-17T07:16:29.251Z,2.25
2022-11-17T07:19:58.994Z,5.63
2022-11-17T07:22:48.596Z,2.80
2022-11-17T07:25:44.533Z,5.38
2022-11-17T07:29:02.219Z,3.15
2022-11-17T07:32:14.666Z,3.63
2022-11-17T07:35:19.123Z,2.55
2022-11-17T07:38:50.758Z,3.83
2022-11-17T07:42:11.308Z,2.55
2022-11-17T07:45:17.114Z,2.33
2022-11-17T07:48:33.895Z,2.10
2022-11-17T07:51:52.371Z,2.40
2022-11-17T07:54:58.638Z,4.57
2022-11-17T07:57:54.516Z,2.50
2022-11-17T08:01:04.756Z,5.20
2022-11-17T08:03:44.436Z,4.13
2022-11-17T08:06:47.302Z,6.68
2022-11-17T08:09:57.510Z,3.92
2022-11-17T08:12:43.982Z,6.53
2022-11-17T08:15:22.138Z,3.78
2022-11-17T08:18:09.798Z,5.85
2022-11-17T08:20:48.235Z,6.20
2022-11-17T08:23:45.688Z,5.68
2022-11-17T08:26:51.903Z,4.95
2022-11-17T08:33:07.667Z,6.82
2022-11-17T08:35:48.239Z,4.87
2022-11-17T08:38:39.980Z,4.95
2022-11-17T08:41:58.627Z,5.35
2022-11-17T08:44:47.810Z,8.07
2022-11-17T08:47:49.406Z,4.13
2022-11-17T08:50:25.355Z,8.85
2022-11-17T08:53:24.648Z,4.35
2022-11-17T08:56:29.614Z,4.63
2022-11-17T08:59:13.939Z,4.30
2022-11-17T09:01:49.971Z,5.10
2022-11-17T09:05:12.715Z,6.03
2022-11-17T09:07:51.761Z,4.88
2022-11-17T09:10:49.405Z,6.30
2022-11-17T09:13:41.217Z,6.72
2022-11-17T09:16:41.287Z,6.35
2022-11-17T09:19:46.777Z,4.25
2022-11-17T09:22:54.310Z,5.22
2022-11-17T09:25:53.523Z,4.70
2022-11-17T09:28:38.646Z,6.15
2022-11-17T09:31:30.839Z,5.75
2022-11-17T09:34:37.686Z,5.97
2022-11-17T09:37:31.488Z,6.45
2022-11-17T09:40:54.746Z,7.20
2022-11-17T09:44:14.508Z,4.53
2022-11-17T09:47:11.923Z,4.57
2022-11-17T09:50:02.630Z,4.45
2022-11-17T09:52:37.049Z,5.75
2022-11-17T09:55:28.514Z,4.78
2022-11-17T09:58:26.954Z,3.78
2022-11-17T10:00:54.393Z,4.75
2022-11-17T10:03:31.717Z,9.05
2022-11-17T10:06:00.775Z,5.65
2022-11-17T10:08:40.552Z,6.55
2022-11-17T10:11:31.648Z,4.78
2022-11-17T10:14:13.943Z,5.65
2022-11-17T10:16:43.841Z,5.53
2022-11-17T10:19:23.005Z,5.63
2022-11-17T10:21:54.662Z,6.65
2022-11-17T10:24:38.189Z,6.65
2022-11-17T10:27:15.558Z,4.53
2022-11-17T10:30:04.003Z,4.22
2022-11-17T10:32:34.687Z,5.25
2022-11-17T10:35:15.330Z,5.03
2022-11-17T10:37:51.595Z,5.88
2022-11-17T10:40:25.332Z,3.72
2022-11-17T10:43:01.588Z,4.10
2022-11-17T10:45:28.814Z,5.03
2022-11-17T10:48:19.954Z,5.18
2022-11-17T10:50:59.930Z,3.13
2022-11-17T10:53:46.042Z,2.80
2022-11-17T10:56:18.487Z,2.92
2022-11-17T10:58:56.625Z,2.53
2022-11-17T11:01:35.338Z,3.97
2022-11-17T11:04:03.998Z,2.50
2022-11-17T11:06:32.750Z,2.28
2022-11-17T11:09:17.390Z,4.80
2022-11-17T11:11:48.246Z,4.22
2022-11-17T11:14:22.158Z,2.58
2022-11-17T11:16:50.982Z,2.75
2022-11-17T11:19:19.991Z,5.22
2022-11-17T11:22:28.048Z,3.75
2022-11-17T11:25:09.986Z,4.95
2022-11-17T11:27:42.486Z,5.72
2022-11-17T11:30:15.410Z,5.20
2022-11-17T11:33:00.262Z,5.38
2022-11-17T11:35:35.663Z,5.15
2022-11-17T11:38:17.219Z,6.45
2022-11-17T11:40:51.543Z,5.80
2022-11-17T11:43:39.694Z,3.40
2022-11-17T11:46:09.062Z,4.55
2022-11-17T11:48:40.078Z,4.47
2022-11-17T11:51:15.225Z,3.30
2022-11-17T11:53:44.566Z,5.97
2022-11-17T11:56:30.783Z,5.95
2022-11-17T11:59:07.829Z,5.32
2022-11-17T12:01:45.239Z,5.47
2022-11-17T12:04:23.841Z,4.45
2022-11-17T12:07:06.258Z,4.50
2022-11-17T12:09:54.796Z,4.18
2022-11-17T12:12:30.902Z,5.82
2022-11-17T12:15:20.366Z,3.83
2022-11-17T12:17:52.954Z,5.18
2022-11-17T12:20:38.423Z,3.67
2022-11-17T12:23:14.034Z,3.20
2022-11-17T12:25:53.917Z,3.35
2022-11-17T12:28:38.901Z,2.47
2022-11-17T12:31:10.513Z,3.20
2022-11-17T12:33:52.316Z,4.15
2022-11-17T12:36:30.040Z,5.45
2022-11-17T12:38:58.573Z,6.15
2022-11-17T12:41:46.994Z,5.85
2022-11-17T12:44:32.292Z,6.07
2022-11-17T12:47:20.386Z,5.15
2022-11-17T12:50:02.168Z,6.60
2022-11-17T12:52:46.523Z,5.78
2022-11-17T12:55:17.871Z,4.55
2022-11-17T12:57:50.313Z,5.75
2022-11-17T13:00:23.545Z,5.03
2022-11-17T13:03:02.812Z,6.00
2022-11-17T13:05:30.285Z,6.90
2022-11-17T13:08:15.015Z,4.90
2022-11-17T13:10:41.832Z,4.28
2022-11-17T13:13:24.664Z,5.57
2022-11-17T13:16:00.310Z,6.82
2022-11-17T13:21:26.029Z,3.30
2022-11-17T13:23:53.603Z,5.53
2022-11-17T13:26:23.218Z,5.20
2022-11-17T13:29:05.217Z,3.75
2022-11-17T13:31:32.895Z,4.72
2022-11-17T13:33:59.487Z,4.70
2022-11-17T13:36:27.320Z,6.70
2022-11-17T13:39:00.318Z,6.05
2022-11-17T13:41:32.244Z,4.30
2022-11-17T13:43:59.951Z,4.18
2022-11-17T13:46:26.757Z,5.60
2022-11-17T13:48:53.626Z,7.78
2022-11-17T13:51:20.310Z,6.65
2022-11-17T13:53:51.305Z,9.70
2022-11-17T13:56:29.388Z,8.93
2022-11-17T13:58:57.059Z,6.57
2022-11-17T14:01:28.963Z,4.90
2022-11-17T14:04:22.643Z,3.65
2022-11-17T14:06:55.710Z,5.82
2022-11-17T14:09:23.142Z,10.85
2022-11-17T14:11:50.433Z,5.40
2022-11-17T14:14:42.049Z,3.78
2022-11-17T14:17:21.443Z,3.33
2022-11-17T14:19:48.582Z,2.97
2022-11-17T14:22:22.381Z,2.92
2022-11-17T14:24:50.486Z,5.80
2022-11-17T14:27:29.709Z,6.88
2022-11-17T14:29:56.484Z,5.57
2022-11-17T14:32:23.066Z,4.40
2022-11-17T14:34:49.752Z,3.83
2022-11-17T14:37:16.891Z,9.20
2022-11-17T14:39:43.595Z,4.38
2022-11-17T14:42:11.213Z,6.43
2022-11-17T14:44:37.968Z,6.03
2022-11-17T14:47:04.587Z,4.82
2022-11-17T14:49:31.898Z,5.30
2022-11-17T14:51:59.325Z,5.00
2022-11-17T14:54:26.271Z,8.40
2022-11-17T14:56:52.872Z,5.72
2022-11-17T14:59:19.608Z,5.25
2022-11-17T15:01:46.417Z,4.80
2022-11-17T15:04:42.930Z,8.65
2022-11-17T15:07:01.663Z,4.63
2022-11-17T15:09:28.425Z,6.20
2022-11-17T15:11:55.180Z,4.20
2022-11-17T15:14:22.691Z,4.63
2022-11-17T15:16:49.358Z,5.53
2022-11-17T15:19:16.168Z,7.45
2022-11-17T15:21:42.966Z,3.22
2022-11-17T15:24:09.663Z,3.85
2022-11-17T15:26:36.473Z,2.35
2022-11-17T15:29:03.325Z,3.40
2022-11-17T15:31:30.035Z,4.30
2022-11-17T15:33:56.680Z,5.63
2022-11-17T15:36:23.696Z,3.53
2022-11-17T15:38:50.410Z,3.17
2022-11-17T15:41:17.174Z,2.90
2022-11-17T15:43:44.650Z,7.28
2022-11-17T15:46:14.687Z,3.15
2022-11-17T15:48:43.536Z,5.07
2022-11-17T15:51:15.894Z,3.55
2022-11-17T15:53:43.747Z,4.28
2022-11-17T15:56:20.726Z,3.25
2022-11-17T15:58:49.034Z,4.88
2022-11-17T16:01:17.332Z,3.08
2022-11-17T16:03:45.366Z,3.67
2022-11-17T16:06:12.696Z,2.50
2022-11-17T16:08:40.014Z,3.72
2022-11-17T16:11:07.021Z,3.22
2022-11-17T16:13:34.035Z,9.52
2022-11-17T16:16:01.228Z,4.55
2022-11-17T16:18:28.562Z,3.92
2022-11-17T16:20:57.949Z,6.38
2022-11-17T16:23:28.218Z,4.53
2022-11-17T16:25:54.988Z,5.68
2022-11-17T16:28:21.647Z,3.60
2022-11-17T16:30:48.281Z,6.03
2022-11-17T16:33:16.586Z,6.75
2022-11-17T16:35:45.382Z,3.72
2022-11-17T16:38:17.054Z,4.07
2022-11-17T16:40:44.236Z,6.25
2022-11-17T16:43:13.263Z,6.43
2022-11-17T16:45:45.236Z,5.55
2022-11-17T16:48:12.665Z,5.85
2022-11-17T16:50:40.859Z,3.70
2022-11-17T16:53:07.757Z,4.30
2022-11-17T16:55:38.033Z,7.55
2022-11-17T16:58:06.696Z,5.07
2022-11-17T17:00:37.795Z,3.70
2022-11-17T17:03:04.783Z,3.85
2022-11-17T17:05:31.434Z,4.82
2022-11-17T17:07:58.328Z,7.88
2022-11-17T17:10:26.324Z,4.15
2022-11-17T17:12:53.378Z,8.68
2022-11-17T17:15:20.138Z,10.52
2022-11-17T17:17:46.939Z,7.13
2022-11-17T17:20:13.577Z,8.40
2022-11-17T17:22:40.484Z,6.10
2022-11-17T17:25:07.879Z,8.45
2022-11-17T17:27:34.624Z,6.55
2022-11-17T17:30:01.406Z,4.82
2022-11-17T17:32:28.104Z,8.85
2022-11-17T17:34:54.695Z,6.75
2022-11-17T17:37:21.419Z,11.65
2022-11-17T17:39:48.036Z,5.28
2022-11-17T17:42:14.867Z,6.07
2022-11-17T17:44:41.717Z,7.22
2022-11-17T17:47:08.462Z,9.75
2022-11-17T17:49:35.130Z,9.60
2022-11-17T17:52:01.942Z,14.85
2022-11-17T17:54:28.732Z,8.85
2022-11-17T17:56:57.691Z,8.00
2022-11-17T17:59:24.322Z,10.68
2022-11-17T18:01:51.522Z,8.23
2022-11-17T18:04:18.208Z,9.50
2022-11-17T18:06:49.024Z,13.68
2022-11-17T18:09:20.208Z,10.38
2022-11-17T18:11:54.542Z,9.63
2022-11-17T18:14:24.654Z,7.53
2022-11-17T18:16:53.550Z,9.75
2022-11-17T18:19:20.763Z,9.05
2022-11-17T18:21:47.495Z,7.70
2022-11-17T18:24:15.366Z,8.70
2022-11-17T18:26:43.212Z,9.27
2022-11-17T18:29:17.063Z,9.63
2022-11-17T18:31:46.860Z,9.20
2022-11-17T18:34:17.179Z,8.25
2022-11-17T18:36:43.821Z,7.57
2022-11-17T18:39:10.669Z,6.90
2022-11-17T18:41:37.518Z,9.45
2022-11-17T18:44:04.401Z,14.45
2022-11-17T18:46:32.355Z,12.43
2022-11-17T18:48:59.657Z,10.90
2022-11-17T18:51:32.006Z,11.20
2022-11-17T18:54:00.922Z,14.15
2022-11-17T18:56:31.855Z,10.65
2022-11-17T18:58:59.370Z,8.38
2022-11-17T19:01:30.567Z,8.65
2022-11-17T19:04:00.961Z,6.20
2022-11-17T19:06:27.823Z,11.32
2022-11-17T19:08:54.729Z,9.35
2022-11-17T19:11:22.766Z,14.20
2022-11-17T19:13:49.577Z,10.90
2022-11-17T19:16:19.349Z,10.38
2022-11-17T19:18:48.228Z,8.75
2022-11-17T19:21:23.955Z,7.65
2022-11-17T19:23:52.205Z,10.00
2022-11-17T19:26:21.647Z,10.98
2022-11-17T19:28:48.881Z,9.63
2022-11-17T19:31:20.182Z,10.15
2022-11-17T19:33:48.433Z,8.98
2022-11-17T19:36:17.955Z,9.32
2022-11-17T19:38:48.215Z,11.45
2022-11-17T19:41:17.589Z,9.70
2022-11-17T19:43:45.708Z,9.88
2022-11-17T19:46:14.870Z,9.18
2022-11-17T19:48:42.206Z,12.52
2022-11-17T19:51:15.018Z,9.20
2022-11-17T19:53:42.409Z,14.68
2022-11-17T19:56:09.917Z,9.10
2022-11-17T19:58:36.627Z,9.35
2022-11-17T20:01:15.348Z,11.10
2022-11-17T20:03:43.113Z,10.85
2022-11-17T20:06:11.251Z,13.77
2022-11-17T20:08:39.094Z,12.13
2022-11-17T20:11:12.505Z,12.10
2022-11-17T20:13:40.151Z,14.80
2022-11-17T20:16:12.183Z,10.48
2022-11-17T20:18:43.418Z,11.02
2022-11-17T20:21:13.880Z,8.93
2022-11-17T20:23:41.966Z,10.00
2022-11-17T20:26:13.768Z,9.40
2022-11-17T20:28:41.075Z,10.57
2022-11-17T20:31:12.903Z,11.50
2022-11-17T20:33:40.783Z,10.38
2022-11-17T20:36:09.806Z,8.45
2022-11-17T20:38:36.710Z,11.35
2022-11-17T20:41:04.881Z,8.75
2022-11-17T20:43:32.594Z,9.35
2022-11-17T20:45:59.384Z,11.27
2022-11-17T20:48:27.561Z,9.38
2022-11-17T20:51:01.156Z,6.57
2022-11-17T20:53:29.060Z,12.73
2022-11-17T20:55:57.146Z,16.23
2022-11-17T20:58:24.959Z,11.60
2022-11-17T21:00:52.188Z,9.00
2022-11-17T21:03:19.424Z,18.65
2022-11-17T21:06:00.642Z,7.45
2022-11-17T21:08:30.103Z,8.35
2022-11-17T21:10:58.743Z,9.43
2022-11-17T21:13:25.855Z,12.15
2022-11-17T21:16:21.671Z,9.30
2022-11-17T21:18:48.804Z,8.73
2022-11-17T21:21:15.997Z,10.48
2022-11-17T21:23:43.978Z,6.65
2022-11-17T21:26:18.727Z,12.80
2022-11-17T21:28:46.809Z,10.30
2022-11-17T21:31:15.663Z,8.65
2022-11-17T21:33:43.583Z,8.90
2022-11-17T21:36:15.493Z,11.85
2022-11-17T21:38:43.333Z,10.65
2022-11-17T21:41:11.148Z,8.18
2022-11-17T21:43:39.898Z,10.88
2022-11-17T21:46:09.188Z,8.02
2022-11-17T21:48:37.290Z,10.88
2022-11-17T21:51:05.398Z,8.25
2022-11-17T21:53:32.179Z,8.68
2022-11-17T21:56:02.485Z,9.07
2022-11-17T21:58:29.414Z,8.65
2022-11-17T22:00:56.337Z,11.30
2022-11-17T22:03:24.299Z,9.55
2022-11-17T22:05:52.353Z,10.68
2022-11-17T22:08:19.381Z,12.35
2022-11-17T22:10:45.961Z,11.80
2022-11-17T22:13:12.719Z,9.98
2022-11-17T22:15:39.455Z,11.77
2022-11-17T22:18:06.276Z,11.23
2022-11-17T22:20:32.931Z,14.25
2022-11-17T22:22:59.606Z,10.93
2022-11-17T22:25:44.244Z,10.70
2022-11-17T22:28:11.853Z,15.00
2022-11-17T22:30:38.973Z,14.82
2022-11-17T22:33:05.783Z,12.35
2022-11-17T22:35:32.512Z,14.20
2022-11-17T22:37:59.171Z,12.32
2022-11-17T22:40:25.790Z,10.80
2022-11-17T22:42:52.816Z,13.18
2022-11-17T22:45:19.512Z,14.77
2022-11-17T22:47:46.303Z,12.98
2022-11-17T22:50:13.039Z,19.35
2022-11-17T22:52:39.714Z,12.00
2022-11-17T22:55:06.696Z,11.23
2022-11-17T22:57:33.403Z,10.93
2022-11-17T23:00:00.014Z,11.82
2022-11-17T23:02:26.703Z,12.32
2022-11-17T23:04:53.554Z,13.38
2022-11-17T23:07:20.340Z,15.30
2022-11-17T23:09:46.950Z,11.02
2022-11-17T23:12:14.531Z,12.90
2022-11-17T23:14:41.146Z,18.27
2022-11-17T23:17:07.851Z,14.13
2022-11-17T23:19:34.547Z,10.60
2022-11-17T23:22:01.182Z,13.32
2022-11-17T23:24:27.779Z,11.63
2022-11-17T23:26:54.660Z,10.25
2022-11-17T23:29:21.537Z,11.98
2022-11-17T23:31:48.230Z,12.82
2022-11-17T23:34:14.946Z,11.43
2022-11-17T23:36:41.582Z,10.32
2022-11-17T23:39:08.286Z,13.88
2022-11-17T23:41:34.992Z,16.15
2022-11-17T23:44:01.618Z,12.82
2022-11-17T23:46:28.437Z,12.88
2022-11-17T23:48:57.086Z,12.18
2022-11-17T23:51:25.733Z,13.00
2022-11-17T23:53:52.961Z,12.82
2022-11-17T23:56:20.643Z,11.80
2022-11-17T23:58:48.027Z,12.52
